Weather at Vestby Airfield [CLOSED]

Public forecast

Using degrees Celsius for public forecast. Weather courtesy of forecast.io.

Closest aviation weather report (METAR) to Vestby Airfield

Closest report is Moss Airport, Rygge, 14.7 nm (27.3 km) S.

2024/05/21 05:50 (retrieved 36 minutes ago)

ENRY 210550Z AUTO 08005KT 040V110 9999 NCD 15/00 Q1022

Closest aviation forecast (TAF) to Vestby Airfield

Closest forecast is Moss Airport, Rygge, 14.7 nm (27.3 km) S.

2024/05/21 06:39 (retrieved 0 seconds ago)

TAF TAF ENRY 210500Z 2106/2206 10005KT CAVOK